createdAt,value
2019-04-16T00:00:02.586Z,17.25
2019-04-16T00:02:43.361Z,21.90
2019-04-16T00:05:12.321Z,19.65
2019-04-16T00:07:47.216Z,20.10
2019-04-16T00:10:28.156Z,18.30
2019-04-16T00:13:08.927Z,18.52
2019-04-16T00:15:41.053Z,18.07
2019-04-16T00:18:05.257Z,19.17
2019-04-16T00:20:36.883Z,17.75
2019-04-16T00:23:04.765Z,19.57
2019-04-16T00:25:32.257Z,18.50
2019-04-16T00:28:00.658Z,17.02
2019-04-16T00:30:28.038Z,19.77
2019-04-16T00:32:55.348Z,18.82
2019-04-16T00:35:22.667Z,17.92
2019-04-16T00:37:51.773Z,17.52
2019-04-16T00:40:18.990Z,19.00
2019-04-16T00:42:46.282Z,18.62
2019-04-16T00:45:13.585Z,18.37
2019-04-16T00:47:40.921Z,19.25
2019-04-16T00:50:08.236Z,17.95
2019-04-16T00:52:37.081Z,20.72
2019-04-16T00:55:05.921Z,19.60
2019-04-16T00:57:33.224Z,19.57
2019-04-16T01:00:00.546Z,20.45
2019-04-16T01:02:27.833Z,19.37
2019-04-16T01:04:55.152Z,19.30
2019-04-16T01:07:22.456Z,19.48
2019-04-16T01:09:49.760Z,19.23
2019-04-16T01:12:17.050Z,21.37
2019-04-16T01:14:44.344Z,20.20
2019-04-16T01:17:11.661Z,19.57
2019-04-16T01:19:41.193Z,20.40
2019-04-16T01:22:07.901Z,20.80
2019-04-16T01:24:35.192Z,19.62
2019-04-16T01:27:02.514Z,19.85
2019-04-16T01:29:33.670Z,21.95
2019-04-16T01:32:16.588Z,20.72
2019-04-16T01:34:48.517Z,17.80
2019-04-16T01:37:17.457Z,21.42
2019-04-16T01:39:47.747Z,24.02
2019-04-16T01:42:15.521Z,20.60
2019-04-16T01:44:42.834Z,21.40
2019-04-16T01:47:10.122Z,21.90
2019-04-16T01:49:39.305Z,21.50
2019-04-16T01:52:06.368Z,23.10
2019-04-16T01:54:33.686Z,20.27
2019-04-16T01:57:01.149Z,21.82
2019-04-16T01:59:28.465Z,22.05
2019-04-16T02:01:55.788Z,18.23
2019-04-16T02:04:23.073Z,21.02
2019-04-16T02:06:50.392Z,20.10
2019-04-16T02:09:22.825Z,19.62
2019-04-16T02:11:46.644Z,21.20
2019-04-16T02:14:14.569Z,19.00
2019-04-16T02:16:42.888Z,19.57
2019-04-16T02:19:10.200Z,20.48
2019-04-16T02:21:38.992Z,20.23
2019-04-16T02:24:06.451Z,19.55
2019-04-16T02:26:33.740Z,22.82
2019-04-16T02:29:01.275Z,20.32
2019-04-16T02:31:28.580Z,22.27
2019-04-16T02:33:55.868Z,20.00
2019-04-16T02:36:23.161Z,20.45
2019-04-16T02:38:53.316Z,20.80
2019-04-16T02:41:23.385Z,20.08
2019-04-16T02:43:48.343Z,24.77
2019-04-16T02:46:15.665Z,21.07
2019-04-16T02:48:49.989Z,24.87
2019-04-16T02:51:19.297Z,20.60
2019-04-16T02:53:54.425Z,20.08
2019-04-16T02:56:27.717Z,20.95
2019-04-16T02:58:59.701Z,21.77
2019-04-16T03:01:37.665Z,21.37
2019-04-16T03:04:09.709Z,22.90
2019-04-16T03:06:36.950Z,21.95
2019-04-16T03:09:08.550Z,22.65
2019-04-16T03:11:34.441Z,22.90
2019-04-16T03:14:01.761Z,22.93
2019-04-16T03:16:46.580Z,22.45
2019-04-16T03:19:19.254Z,20.88
2019-04-16T03:21:44.460Z,22.42
2019-04-16T03:24:11.752Z,20.90
2019-04-16T03:26:39.065Z,22.67
2019-04-16T03:29:06.358Z,21.73
2019-04-16T03:31:33.675Z,22.55
2019-04-16T03:34:00.965Z,22.48
2019-04-16T03:36:30.220Z,22.98
2019-04-16T03:38:57.626Z,21.73
2019-04-16T03:41:25.773Z,23.95
2019-04-16T03:43:53.115Z,24.02
2019-04-16T03:46:20.437Z,21.23
2019-04-16T03:48:47.726Z,23.92
2019-04-16T03:51:15.022Z,21.73
2019-04-16T03:53:42.324Z,23.35
2019-04-16T03:56:09.617Z,21.75
2019-04-16T03:58:38.744Z,23.73
2019-04-16T04:01:05.865Z,22.65
2019-04-16T04:03:33.177Z,23.77
2019-04-16T04:06:00.479Z,22.85
2019-04-16T04:08:27.790Z,22.85
2019-04-16T04:10:55.104Z,23.38
2019-04-16T04:13:22.395Z,23.02
2019-04-16T04:15:49.684Z,23.47
2019-04-16T04:18:17.001Z,23.02
2019-04-16T04:20:44.344Z,22.48
2019-04-16T04:23:11.654Z,21.52
2019-04-16T04:25:38.896Z,22.30
2019-04-16T04:28:06.628Z,25.12
2019-04-16T04:30:33.974Z,22.30
2019-04-16T04:33:01.264Z,21.62
2019-04-16T04:35:28.590Z,22.60
2019-04-16T04:37:55.881Z,23.67
2019-04-16T04:40:23.173Z,24.35
2019-04-16T04:42:50.484Z,23.85
2019-04-16T04:45:17.789Z,22.85
2019-04-16T04:47:45.099Z,23.05
2019-04-16T04:50:12.386Z,26.27
2019-04-16T04:52:39.713Z,22.35
2019-04-16T04:55:07.013Z,22.48
2019-04-16T04:57:34.303Z,26.52
2019-04-16T05:00:01.621Z,24.30
2019-04-16T05:02:28.916Z,25.32
2019-04-16T05:05:16.171Z,22.90
2019-04-16T05:07:43.457Z,24.90
2019-04-16T05:10:10.768Z,25.10
2019-04-16T05:12:38.061Z,23.95
2019-04-16T05:15:05.961Z,25.25
2019-04-16T05:17:35.508Z,24.52
2019-04-16T05:20:02.207Z,23.85
2019-04-16T05:22:32.731Z,25.48
2019-04-16T05:25:01.582Z,25.55
2019-04-16T05:27:29.348Z,26.10
2019-04-16T05:29:56.340Z,26.85
2019-04-16T05:32:25.889Z,39.75
2019-04-16T05:34:52.589Z,26.90
2019-04-16T05:37:20.874Z,43.80
2019-04-16T05:39:48.186Z,29.45
2019-04-16T05:42:15.498Z,30.75
2019-04-16T05:44:42.821Z,23.90
2019-04-16T05:47:10.108Z,29.82
2019-04-16T05:49:37.401Z,33.53
2019-04-16T05:52:04.713Z,24.37
2019-04-16T05:54:36.609Z,25.40
2019-04-16T05:57:14.340Z,23.30
2019-04-16T05:59:41.629Z,21.60
2019-04-16T06:02:15.179Z,24.30
2019-04-16T06:04:42.201Z,26.77
2019-04-16T06:07:09.501Z,20.52
2019-04-16T06:09:36.812Z,22.52
2019-04-16T06:12:05.843Z,23.95
2019-04-16T06:14:40.393Z,21.37
2019-04-16T06:17:31.803Z,26.95
2019-04-16T06:20:19.034Z,20.60
2019-04-16T06:22:46.162Z,26.00
2019-04-16T06:25:26.938Z,23.57
2019-04-16T06:27:58.569Z,22.87
2019-04-16T06:30:36.494Z,20.30
2019-04-16T06:33:11.176Z,26.02
2019-04-16T06:35:45.809Z,22.25
2019-04-16T06:38:23.213Z,23.95
2019-04-16T06:41:04.242Z,22.67
2019-04-16T06:43:38.875Z,22.02
2019-04-16T06:46:13.588Z,21.35
2019-04-16T06:48:45.975Z,23.00
2019-04-16T06:51:13.116Z,21.12
2019-04-16T06:53:42.040Z,20.65
2019-04-16T06:56:10.994Z,21.30
2019-04-16T06:58:51.374Z,24.47
2019-04-16T07:01:23.344Z,24.18
2019-04-16T07:03:59.473Z,20.35
2019-04-16T07:06:35.902Z,20.48
2019-04-16T07:09:02.812Z,21.52
2019-04-16T07:11:31.737Z,20.17
2019-04-16T07:13:59.031Z,21.35
2019-04-16T07:16:28.889Z,18.12
2019-04-16T07:18:55.271Z,19.50
2019-04-16T07:21:22.589Z,19.23
2019-04-16T07:23:49.920Z,16.15
2019-04-16T07:26:17.188Z,29.40
2019-04-16T07:28:58.512Z,25.20
2019-04-16T07:31:34.291Z,19.35
2019-04-16T07:34:08.084Z,15.32
2019-04-16T07:36:48.826Z,13.43
2019-04-16T07:39:28.910Z,14.80
2019-04-16T07:42:10.700Z,24.65
2019-04-16T07:44:45.850Z,17.62
2019-04-16T07:47:20.011Z,20.60
2019-04-16T07:49:59.836Z,23.20
2019-04-16T07:52:43.950Z,20.37
2019-04-16T07:55:18.637Z,19.30
2019-04-16T07:57:45.949Z,17.85
2019-04-16T08:00:14.232Z,16.25
2019-04-16T08:02:41.525Z,21.12
2019-04-16T08:05:09.739Z,18.90
2019-04-16T08:07:37.114Z,18.02
2019-04-16T08:10:04.598Z,14.23
2019-04-16T08:12:31.911Z,20.88
2019-04-16T08:15:12.650Z,16.45
2019-04-16T08:17:28.152Z,15.95
2019-04-16T08:19:56.046Z,22.30
2019-04-16T08:22:23.374Z,15.58
2019-04-16T08:24:57.579Z,16.32
2019-04-16T08:27:21.238Z,17.40
2019-04-16T08:29:48.525Z,15.32
2019-04-16T08:32:16.197Z,18.30
2019-04-16T08:34:44.238Z,32.75
2019-04-16T08:37:11.534Z,16.30
2019-04-16T08:39:39.871Z,23.07
2019-04-16T08:42:07.744Z,18.48
2019-04-16T08:44:35.741Z,16.87
2019-04-16T08:47:03.716Z,20.15
2019-04-16T08:49:31.009Z,16.85
2019-04-16T08:51:58.330Z,16.50
2019-04-16T08:54:25.637Z,19.85
2019-04-16T08:56:52.913Z,19.15
2019-04-16T08:59:20.234Z,15.85
2019-04-16T09:01:47.525Z,18.77
2019-04-16T09:04:14.817Z,16.45
2019-04-16T09:06:42.586Z,18.15
2019-04-16T09:09:30.563Z,16.93
2019-04-16T09:11:59.510Z,16.27
2019-04-16T09:14:28.594Z,21.85
2019-04-16T09:17:00.216Z,17.60
2019-04-16T09:19:27.524Z,17.37
2019-04-16T09:21:54.818Z,17.67
2019-04-16T09:24:41.480Z,15.68
2019-04-16T09:27:30.085Z,16.50
2019-04-16T09:30:16.936Z,15.58
2019-04-16T09:32:50.293Z,16.90
2019-04-16T09:35:22.198Z,22.65
2019-04-16T09:37:51.126Z,13.83
2019-04-16T09:40:22.829Z,14.45
2019-04-16T09:42:50.155Z,16.73
2019-04-16T09:45:18.447Z,20.55
2019-04-16T09:47:45.741Z,13.80
2019-04-16T09:50:13.027Z,19.23
2019-04-16T09:52:40.344Z,20.80
2019-04-16T09:55:07.637Z,13.55
2019-04-16T09:57:34.949Z,15.83
2019-04-16T10:00:03.883Z,17.42
2019-04-16T10:02:33.049Z,15.83
2019-04-16T10:05:00.356Z,12.85
2019-04-16T10:07:27.696Z,15.00
2019-04-16T10:09:55.332Z,16.05
2019-04-16T10:12:22.961Z,16.90
2019-04-16T10:14:50.197Z,20.75
2019-04-16T10:17:17.559Z,21.55
2019-04-16T10:19:44.808Z,16.80
2019-04-16T10:22:12.098Z,13.65
2019-04-16T10:24:57.093Z,15.40
2019-04-16T10:27:32.320Z,18.40
2019-04-16T10:29:58.065Z,16.85
2019-04-16T10:32:26.665Z,18.52
2019-04-16T10:34:53.979Z,13.03
2019-04-16T10:37:21.302Z,13.40
2019-04-16T10:40:06.293Z,14.75
2019-04-16T10:42:43.891Z,15.53
2019-04-16T10:45:15.537Z,14.18
2019-04-16T10:47:44.467Z,14.18
2019-04-16T10:50:29.782Z,14.30
2019-04-16T10:52:58.682Z,13.10
2019-04-16T10:55:27.629Z,15.32
2019-04-16T10:57:56.561Z,18.10
2019-04-16T11:00:31.562Z,14.28
2019-04-16T11:03:09.630Z,16.07
2019-04-16T11:05:44.200Z,16.27
2019-04-16T11:08:12.118Z,12.75
2019-04-16T11:10:39.382Z,60.08
2019-04-16T11:13:08.318Z,19.70
2019-04-16T11:15:35.992Z,44.48
2019-04-16T11:18:04.504Z,25.12
2019-04-16T11:20:31.974Z,20.17
2019-04-16T11:22:59.373Z,20.25
2019-04-16T11:25:26.691Z,18.73
2019-04-16T11:27:54.026Z,15.95
2019-04-16T11:30:34.925Z,13.68
2019-04-16T11:33:02.248Z,14.03
2019-04-16T11:35:29.542Z,17.87
2019-04-16T11:37:56.827Z,16.35
2019-04-16T11:40:24.181Z,15.45
2019-04-16T11:42:51.422Z,13.80
2019-04-16T11:45:19.736Z,12.20
2019-04-16T11:47:48.237Z,15.85
2019-04-16T11:50:16.161Z,11.45
2019-04-16T11:52:43.451Z,15.78
2019-04-16T11:55:10.766Z,18.02
2019-04-16T11:57:38.031Z,15.88
2019-04-16T12:00:11.043Z,11.95
2019-04-16T12:02:40.045Z,14.23
2019-04-16T12:05:08.998Z,12.53
2019-04-16T12:07:54.060Z,13.80
2019-04-16T12:10:37.882Z,14.10
2019-04-16T12:13:12.722Z,16.47
2019-04-16T12:15:44.691Z,14.43
2019-04-16T12:18:16.145Z,15.83
2019-04-16T12:20:45.136Z,12.43
2019-04-16T12:23:23.028Z,11.90
2019-04-16T12:26:10.420Z,13.23
2019-04-16T12:28:51.675Z,12.90
2019-04-16T12:31:20.642Z,12.00
2019-04-16T12:33:55.299Z,13.10
2019-04-16T12:36:40.292Z,16.47
2019-04-16T12:39:11.825Z,14.73
2019-04-16T12:41:43.537Z,13.20
2019-04-16T12:44:27.359Z,13.90
2019-04-16T12:46:59.349Z,17.93
2019-04-16T12:49:44.087Z,13.00
2019-04-16T12:52:28.040Z,13.30
2019-04-16T12:54:59.874Z,14.17
2019-04-16T12:57:28.811Z,15.97
2019-04-16T13:00:06.570Z,12.60
2019-04-16T13:02:35.529Z,18.07
2019-04-16T13:05:04.518Z,13.30
2019-04-16T13:07:33.382Z,14.83
2019-04-16T13:10:10.985Z,13.67
2019-04-16T13:12:39.923Z,12.90
2019-04-16T13:15:08.893Z,11.60
2019-04-16T13:17:53.901Z,14.70
2019-04-16T13:20:34.296Z,13.30
2019-04-16T13:23:18.341Z,24.77
2019-04-16T13:25:56.253Z,19.50
2019-04-16T13:28:23.881Z,12.80
2019-04-16T13:30:51.158Z,10.77
2019-04-16T13:33:18.450Z,14.03
2019-04-16T13:35:45.764Z,12.77
2019-04-16T13:38:14.373Z,12.03
2019-04-16T13:40:41.733Z,12.37
2019-04-16T13:43:09.708Z,19.03
2019-04-16T13:45:38.186Z,13.47
2019-04-16T13:48:15.418Z,13.53
2019-04-16T13:50:41.860Z,12.77
2019-04-16T13:53:23.003Z,14.43
2019-04-16T13:55:54.982Z,10.50
2019-04-16T13:58:35.744Z,11.60
2019-04-16T14:01:16.421Z,14.43
2019-04-16T14:03:43.714Z,15.47
2019-04-16T14:06:11.400Z,13.50
2019-04-16T14:08:38.717Z,16.70
2019-04-16T14:11:06.040Z,11.97
2019-04-16T14:13:33.360Z,16.03
2019-04-16T14:16:00.678Z,10.93
2019-04-16T14:18:29.569Z,10.27
2019-04-16T14:20:56.897Z,10.07
2019-04-16T14:23:24.220Z,10.50
2019-04-16T14:25:51.499Z,9.83
2019-04-16T14:28:18.785Z,10.47
2019-04-16T14:30:47.756Z,10.00
2019-04-16T14:33:16.677Z,9.83
2019-04-16T14:35:43.997Z,11.17
2019-04-16T14:38:12.929Z,10.07
2019-04-16T14:40:42.365Z,10.70
2019-04-16T14:43:09.163Z,9.50
2019-04-16T14:45:53.662Z,8.80
2019-04-16T14:48:08.870Z,10.07
2019-04-16T14:50:36.000Z,8.50
2019-04-16T14:53:03.296Z,9.67
2019-04-16T14:55:59.875Z,8.93
2019-04-16T14:58:26.881Z,11.47
2019-04-16T15:01:10.857Z,9.80
2019-04-16T15:03:54.572Z,8.80
2019-04-16T15:06:23.521Z,11.87
2019-04-16T15:09:08.830Z,8.77
2019-04-16T15:11:52.649Z,9.77
2019-04-16T15:14:23.449Z,10.57
2019-04-16T15:16:55.125Z,10.03
2019-04-16T15:19:32.616Z,9.57
2019-04-16T15:22:01.589Z,9.33
2019-04-16T15:24:42.333Z,9.97
2019-04-16T15:27:17.215Z,9.93
2019-04-16T15:29:46.170Z,10.40
2019-04-16T15:32:18.045Z,10.03
2019-04-16T15:34:46.995Z,9.57
2019-04-16T15:37:18.654Z,9.10
2019-04-16T15:39:47.573Z,9.90
2019-04-16T15:42:17.682Z,8.23
2019-04-16T15:44:58.562Z,8.83
2019-04-16T15:47:46.152Z,8.50
2019-04-16T15:50:14.165Z,9.43
2019-04-16T15:52:46.467Z,11.03
2019-04-16T15:55:18.599Z,9.93
2019-04-16T15:57:59.653Z,11.10
2019-04-16T16:00:34.566Z,9.00
2019-04-16T16:03:06.236Z,9.83
2019-04-16T16:05:41.137Z,8.87
2019-04-16T16:08:15.853Z,9.03
2019-04-16T16:10:56.589Z,9.40
2019-04-16T16:13:26.525Z,10.43
2019-04-16T16:15:52.840Z,10.33
2019-04-16T16:18:20.128Z,10.57
2019-04-16T16:20:47.449Z,10.00
2019-04-16T16:23:14.733Z,12.10
2019-04-16T16:25:42.143Z,12.50
2019-04-16T16:28:09.437Z,11.50
2019-04-16T16:30:36.893Z,8.60
2019-04-16T16:33:04.185Z,11.90
2019-04-16T16:35:34.610Z,9.17
2019-04-16T16:38:00.447Z,11.75
2019-04-16T16:40:27.752Z,9.68
2019-04-16T16:42:55.076Z,19.32
2019-04-16T16:45:24.006Z,14.05
2019-04-16T16:47:51.322Z,9.83
2019-04-16T16:50:18.611Z,11.08
2019-04-16T16:52:56.587Z,10.32
2019-04-16T16:55:31.509Z,11.33
2019-04-16T16:58:00.499Z,11.95
2019-04-16T17:00:44.563Z,13.90
2019-04-16T17:03:16.483Z,9.85
2019-04-16T17:05:44.748Z,13.50
2019-04-16T17:08:12.200Z,12.28
2019-04-16T17:10:42.463Z,15.95
2019-04-16T17:13:13.320Z,15.45
2019-04-16T17:15:37.449Z,10.05
2019-04-16T17:18:04.769Z,10.63
2019-04-16T17:20:32.061Z,11.00
2019-04-16T17:22:59.503Z,11.22
2019-04-16T17:25:36.096Z,12.82
2019-04-16T17:27:55.699Z,12.60
2019-04-16T17:30:23.088Z,10.05
2019-04-16T17:32:50.372Z,17.23
2019-04-16T17:35:17.661Z,12.13
2019-04-16T17:37:44.976Z,13.83
2019-04-16T17:40:21.340Z,9.98
2019-04-16T17:42:50.308Z,11.10
2019-04-16T17:45:37.153Z,11.60
2019-04-16T17:48:06.101Z,13.43
2019-04-16T17:50:39.560Z,11.35
2019-04-16T17:53:11.294Z,9.55
2019-04-16T17:55:40.249Z,11.15
2019-04-16T17:58:09.183Z,14.60
2019-04-16T18:00:46.956Z,17.05
2019-04-16T18:03:27.605Z,17.42
2019-04-16T18:06:08.669Z,20.92
2019-04-16T18:08:43.314Z,12.28
2019-04-16T18:11:12.257Z,8.78
2019-04-16T18:13:56.065Z,8.25
2019-04-16T18:16:36.753Z,10.35
2019-04-16T18:19:24.805Z,9.20
2019-04-16T18:21:53.725Z,9.48
2019-04-16T18:24:25.668Z,10.45
2019-04-16T18:26:54.598Z,14.15
2019-04-16T18:29:32.903Z,8.78
2019-04-16T18:32:11.877Z,9.90
2019-04-16T18:34:46.556Z,9.70
2019-04-16T18:37:30.000Z,11.60
2019-04-16T18:40:10.863Z,9.65
2019-04-16T18:42:56.154Z,10.03
2019-04-16T18:45:43.206Z,9.48
2019-04-16T18:48:13.766Z,11.53
2019-04-16T18:50:41.117Z,15.05
2019-04-16T18:53:10.705Z,13.18
2019-04-16T18:55:37.344Z,11.75
2019-04-16T18:58:04.653Z,15.43
2019-04-16T19:00:42.681Z,12.73
2019-04-16T19:03:14.646Z,12.35
2019-04-16T19:05:38.962Z,13.35
2019-04-16T19:08:06.521Z,14.15
2019-04-16T19:10:33.841Z,13.40
2019-04-16T19:13:01.164Z,14.18
2019-04-16T19:15:28.421Z,13.93
2019-04-16T19:17:55.744Z,13.98
2019-04-16T19:20:23.037Z,15.20
2019-04-16T19:22:50.757Z,19.98
2019-04-16T19:25:18.049Z,14.80
2019-04-16T19:27:48.764Z,19.87
2019-04-16T19:30:14.289Z,13.28
2019-04-16T19:32:41.605Z,14.18
2019-04-16T19:35:11.431Z,14.80
2019-04-16T19:37:37.860Z,15.03
2019-04-16T19:40:05.162Z,15.85
2019-04-16T19:42:32.438Z,14.30
2019-04-16T19:44:59.758Z,13.28
2019-04-16T19:47:27.248Z,14.07
2019-04-16T19:49:54.753Z,13.25
2019-04-16T19:52:22.248Z,17.95
2019-04-16T19:54:49.549Z,14.58
2019-04-16T19:57:16.872Z,14.40
2019-04-16T19:59:46.584Z,16.42
2019-04-16T20:02:13.121Z,13.25
2019-04-16T20:04:41.388Z,13.93
2019-04-16T20:07:09.349Z,16.57
2019-04-16T20:09:39.079Z,14.65
2019-04-16T20:12:05.611Z,13.03
2019-04-16T20:14:35.688Z,12.25
2019-04-16T20:17:01.846Z,12.73
2019-04-16T20:19:29.132Z,12.90
2019-04-16T20:21:56.457Z,15.43
2019-04-16T20:24:23.773Z,13.90
2019-04-16T20:26:51.089Z,13.10
2019-04-16T20:29:18.381Z,13.93
2019-04-16T20:31:45.672Z,13.32
2019-04-16T20:34:13.303Z,13.28
2019-04-16T20:36:40.593Z,12.03
2019-04-16T20:39:08.114Z,13.90
2019-04-16T20:41:35.405Z,13.78
2019-04-16T20:44:02.712Z,12.90
2019-04-16T20:46:30.032Z,12.75
2019-04-16T20:49:07.648Z,16.05
2019-04-16T20:51:27.253Z,12.20
2019-04-16T20:53:54.778Z,11.93
2019-04-16T20:56:22.030Z,13.30
2019-04-16T20:58:49.333Z,12.43
2019-04-16T21:01:32.175Z,13.62
2019-04-16T21:03:48.176Z,13.08
2019-04-16T21:06:15.517Z,16.50
2019-04-16T21:08:42.781Z,13.00
2019-04-16T21:11:10.065Z,13.22
2019-04-16T21:13:37.382Z,15.90
2019-04-16T21:16:04.687Z,16.73
2019-04-16T21:18:32.019Z,13.83
2019-04-16T21:20:59.285Z,12.73
2019-04-16T21:23:26.580Z,13.95
2019-04-16T21:25:53.910Z,13.72
2019-04-16T21:28:25.785Z,16.05
2019-04-16T21:30:54.737Z,13.10
2019-04-16T21:33:39.718Z,14.80
2019-04-16T21:36:26.559Z,12.65
2019-04-16T21:38:55.499Z,13.28
2019-04-16T21:41:25.648Z,14.15
2019-04-16T21:43:51.806Z,14.00
2019-04-16T21:46:20.528Z,13.90
2019-04-16T21:48:48.181Z,13.58
2019-04-16T21:51:19.049Z,13.15
2019-04-16T21:53:44.466Z,12.55
2019-04-16T21:56:11.777Z,12.73
2019-04-16T21:58:39.082Z,14.00
2019-04-16T22:01:16.841Z,13.83
2019-04-16T22:03:45.759Z,13.75
2019-04-16T22:06:13.073Z,12.50
2019-04-16T22:08:40.376Z,13.18
2019-04-16T22:11:09.020Z,14.50
2019-04-16T22:13:36.641Z,18.23
2019-04-16T22:16:03.929Z,16.23
2019-04-16T22:18:31.233Z,13.58
2019-04-16T22:20:58.548Z,12.95
2019-04-16T22:23:25.836Z,16.20
2019-04-16T22:25:53.211Z,13.50
2019-04-16T22:28:20.517Z,13.75
2019-04-16T22:30:51.292Z,14.53
2019-04-16T22:33:16.921Z,14.20
2019-04-16T22:35:44.281Z,14.33
2019-04-16T22:38:14.316Z,12.47
2019-04-16T22:40:42.164Z,13.03
2019-04-16T22:43:27.289Z,13.13
2019-04-16T22:46:02.368Z,13.35
2019-04-16T22:48:29.644Z,14.60
2019-04-16T22:50:57.103Z,14.03
2019-04-16T22:53:24.554Z,13.50
2019-04-16T22:55:56.428Z,14.10
2019-04-16T22:58:24.308Z,11.90
2019-04-16T23:00:52.335Z,13.18
2019-04-16T23:03:20.200Z,17.12
2019-04-16T23:05:47.656Z,14.80
2019-04-16T23:08:14.945Z,13.80
2019-04-16T23:10:42.260Z,20.25
2019-04-16T23:13:09.553Z,12.63
2019-04-16T23:15:36.868Z,13.90
2019-04-16T23:18:04.194Z,14.75
2019-04-16T23:20:36.142Z,13.10
2019-04-16T23:23:00.444Z,13.40
2019-04-16T23:25:28.218Z,13.58
2019-04-16T23:27:55.552Z,14.40
2019-04-16T23:30:22.843Z,18.25
2019-04-16T23:32:50.159Z,13.80
2019-04-16T23:35:17.453Z,14.38
2019-04-16T23:37:44.736Z,16.15
2019-04-16T23:40:12.254Z,13.68
2019-04-16T23:42:41.178Z,13.22
2019-04-16T23:45:31.130Z,15.70
2019-04-16T23:47:59.768Z,14.43
2019-04-16T23:50:43.805Z,15.13
2019-04-16T23:53:09.006Z,13.78
2019-04-16T23:55:54.782Z,15.15
2019-04-16T23:58:29.685Z,14.10
